sensor_id;sensor_type;location;lat;lon;timestamp;pressure;altitude;pressure_sealevel;temperature;humidity
60228;BME280;46091;46.512;6.626;2023-12-29T07:50:07;97353.06;;;10.53;74.97
60228;BME280;46091;46.512;6.626;2023-12-29T07:52:10;97349.84;;;10.80;74.75
60228;BME280;46091;46.512;6.626;2023-12-29T07:54:13;97354.22;;;11.02;74.01
60228;BME280;46091;46.512;6.626;2023-12-29T07:56:15;97357.31;;;11.21;73.71
60228;BME280;46091;46.512;6.626;2023-12-29T07:58:18;97358.31;;;11.34;73.33
60228;BME280;46091;46.512;6.626;2023-12-29T08:00:21;97358.50;;;11.48;73.07
60228;BME280;46091;46.512;6.626;2023-12-29T08:02:24;97355.56;;;11.57;72.54
60228;BME280;46091;46.512;6.626;2023-12-29T08:04:28;97349.31;;;11.65;72.65
60228;BME280;46091;46.512;6.626;2023-12-29T08:06:33;97354.50;;;11.73;72.39
60228;BME280;46091;46.512;6.626;2023-12-29T08:08:36;97368.84;;;11.79;71.78
60228;BME280;46091;46.512;6.626;2023-12-29T08:10:38;97355.06;;;11.83;71.81
60228;BME280;46091;46.512;6.626;2023-12-29T08:12:42;97356.13;;;11.89;71.74
60228;BME280;46091;46.512;6.626;2023-12-29T08:14:46;97349.47;;;11.93;71.69
60228;BME280;46091;46.512;6.626;2023-12-29T08:16:49;97348.25;;;11.95;71.23
60228;BME280;46091;46.512;6.626;2023-12-29T08:18:52;97359.50;;;11.98;71.07
60228;BME280;46091;46.512;6.626;2023-12-29T08:20:55;97364.25;;;12.02;71.03
60228;BME280;46091;46.512;6.626;2023-12-29T08:22:58;97357.75;;;12.05;71.08
60228;BME280;46091;46.512;6.626;2023-12-29T08:25:05;97356.72;;;12.06;70.70
60228;BME280;46091;46.512;6.626;2023-12-29T08:27:08;97349.59;;;12.06;70.58
60228;BME280;46091;46.512;6.626;2023-12-29T08:29:11;97340.81;;;12.06;70.45
60228;BME280;46091;46.512;6.626;2023-12-29T08:31:14;97336.34;;;12.06;70.43
60228;BME280;46091;46.512;6.626;2023-12-29T08:33:17;97339.00;;;12.06;70.29
60228;BME280;46091;46.512;6.626;2023-12-29T08:35:19;97339.00;;;12.06;70.32
60228;BME280;46091;46.512;6.626;2023-12-29T08:37:23;97337.97;;;12.07;70.02
60228;BME280;46091;46.512;6.626;2023-12-29T08:39:27;97333.50;;;12.08;70.25
60228;BME280;46091;46.512;6.626;2023-12-29T08:41:30;97343.28;;;12.07;70.07
60228;BME280;46091;46.512;6.626;2023-12-29T08:43:32;97345.13;;;12.07;69.62
60228;BME280;46091;46.512;6.626;2023-12-29T08:45:37;97350.41;;;12.07;69.51
60228;BME280;46091;46.512;6.626;2023-12-29T08:47:40;97350.22;;;12.08;69.49
60228;BME280;46091;46.512;6.626;2023-12-29T08:49:43;97348.19;;;12.10;69.44
60228;BME280;46091;46.512;6.626;2023-12-29T08:51:47;97336.44;;;12.13;69.27
60228;BME280;46091;46.512;6.626;2023-12-29T08:53:50;97344.19;;;12.14;69.31
60228;BME280;46091;46.512;6.626;2023-12-29T08:55:54;97349.47;;;12.14;69.04
60228;BME280;46091;46.512;6.626;2023-12-29T08:57:57;97338.88;;;12.14;69.21
60228;BME280;46091;46.512;6.626;2023-12-29T09:00:00;97335.22;;;12.15;68.88
60228;BME280;46091;46.512;6.626;2023-12-29T09:02:04;97350.72;;;12.18;68.85
60228;BME280;46091;46.512;6.626;2023-12-29T09:04:08;97356.84;;;12.19;68.96
60228;BME280;46091;46.512;6.626;2023-12-29T09:06:10;97355.03;;;12.19;68.94
60228;BME280;46091;46.512;6.626;2023-12-29T09:08:13;97358.50;;;12.20;68.79
60228;BME280;46091;46.512;6.626;2023-12-29T09:10:17;97354.41;;;12.17;68.57
60228;BME280;46091;46.512;6.626;2023-12-29T09:12:22;97354.41;;;12.17;68.50
60228;BME280;46091;46.512;6.626;2023-12-29T09:14:24;97359.50;;;12.19;68.29
60228;BME280;46091;46.512;6.626;2023-12-29T09:16:27;97361.16;;;12.20;68.19
60228;BME280;46091;46.512;6.626;2023-12-29T09:18:30;97371.56;;;12.21;68.53
60228;BME280;46091;46.512;6.626;2023-12-29T09:20:35;97361.16;;;12.20;68.06
60228;BME280;46091;46.512;6.626;2023-12-29T09:22:38;97361.97;;;12.20;67.92
60228;BME280;46091;46.512;6.626;2023-12-29T09:24:41;97366.91;;;12.23;68.20
60228;BME280;46091;46.512;6.626;2023-12-29T09:26:45;97361.59;;;12.23;68.12
60228;BME280;46091;46.512;6.626;2023-12-29T09:28:49;97357.13;;;12.24;68.01
60228;BME280;46091;46.512;6.626;2023-12-29T09:30:52;97366.53;;;12.27;67.69
60228;BME280;46091;46.512;6.626;2023-12-29T09:32:55;97367.16;;;12.29;67.64
60228;BME280;46091;46.512;6.626;2023-12-29T09:34:57;97374.09;;;12.30;67.65
60228;BME280;46091;46.512;6.626;2023-12-29T09:37:00;97373.06;;;12.31;67.53
60228;BME280;46091;46.512;6.626;2023-12-29T09:39:03;97380.00;;;12.32;67.44
60228;BME280;46091;46.512;6.626;2023-12-29T09:41:10;97385.31;;;12.32;67.67
60228;BME280;46091;46.512;6.626;2023-12-29T09:43:13;97377.38;;;12.32;67.25
60228;BME280;46091;46.512;6.626;2023-12-29T09:45:23;97379.81;;;12.33;67.23
60228;BME280;46091;46.512;6.626;2023-12-29T09:47:28;97380.47;;;12.35;67.17
60228;BME280;46091;46.512;6.626;2023-12-29T09:49:37;97380.28;;;12.37;67.30
60228;BME280;46091;46.512;6.626;2023-12-29T09:51:41;97386.41;;;12.37;67.38
60228;BME280;46091;46.512;6.626;2023-12-29T09:53:46;97383.56;;;12.39;67.23
60228;BME280;46091;46.512;6.626;2023-12-29T09:55:48;97380.72;;;12.40;67.15
60228;BME280;46091;46.512;6.626;2023-12-29T09:57:51;97386.84;;;12.41;66.94
60228;BME280;46091;46.512;6.626;2023-12-29T09:59:55;97384.19;;;12.41;66.68
60228;BME280;46091;46.512;6.626;2023-12-29T10:02:01;97384.19;;;12.41;66.78
60228;BME280;46091;46.512;6.626;2023-12-29T10:04:06;97382.34;;;12.41;66.86
60228;BME280;46091;46.512;6.626;2023-12-29T10:06:11;97372.56;;;12.42;67.06
60228;BME280;46091;46.512;6.626;2023-12-29T10:08:15;97371.56;;;12.43;66.88
60228;BME280;46091;46.512;6.626;2023-12-29T10:10:20;97370.53;;;12.44;66.82
60228;BME280;46091;46.512;6.626;2023-12-29T10:12:25;97371.34;;;12.44;66.76
60228;BME280;46091;46.512;6.626;2023-12-29T10:14:37;97369.53;;;12.45;66.66
60228;BME280;46091;46.512;6.626;2023-12-29T10:16:45;97370.53;;;12.44;66.62
60228;BME280;46091;46.512;6.626;2023-12-29T10:19:00;97372.56;;;12.42;66.45
60228;BME280;46091;46.512;6.626;2023-12-29T10:21:14;97362.97;;;12.41;66.25
60228;BME280;46091;46.512;6.626;2023-12-29T10:23:23;97357.66;;;12.41;66.26
60228;BME280;46091;46.512;6.626;2023-12-29T10:25:29;97357.66;;;12.41;66.50
60228;BME280;46091;46.512;6.626;2023-12-29T10:27:33;97348.91;;;12.40;66.18
60228;BME280;46091;46.512;6.626;2023-12-29T10:29:36;97346.44;;;12.39;66.22
60228;BME280;46091;46.512;6.626;2023-12-29T10:31:40;97349.09;;;12.39;66.23
60228;BME280;46091;46.512;6.626;2023-12-29T10:33:43;97346.44;;;12.39;66.11
60228;BME280;46091;46.512;6.626;2023-12-29T10:35:58;97341.13;;;12.39;66.15
60228;BME280;46091;46.512;6.626;2023-12-29T10:38:11;97333.81;;;12.41;65.96
60228;BME280;46091;46.512;6.626;2023-12-29T10:40:18;97332.59;;;12.43;65.96
60228;BME280;46091;46.512;6.626;2023-12-29T10:42:21;97332.22;;;12.46;66.21
60228;BME280;46091;46.512;6.626;2023-12-29T10:44:23;97324.91;;;12.48;66.07
60228;BME280;46091;46.512;6.626;2023-12-29T10:46:26;97339.81;;;12.49;65.83
60228;BME280;46091;46.512;6.626;2023-12-29T10:48:29;97332.66;;;12.50;65.70
60228;BME280;46091;46.512;6.626;2023-12-29T10:50:42;97334.31;;;12.51;65.92
60228;BME280;46091;46.512;6.626;2023-12-29T10:52:49;97325.75;;;12.56;65.72
60228;BME280;46091;46.512;6.626;2023-12-29T10:55:04;97320.91;;;12.59;65.89
60228;BME280;46091;46.512;6.626;2023-12-29T10:57:08;97318.88;;;12.61;65.84
60228;BME280;46091;46.512;6.626;2023-12-29T10:59:11;97316.66;;;12.65;65.89
60228;BME280;46091;46.512;6.626;2023-12-29T11:01:15;97323.38;;;12.67;65.60
60228;BME280;46091;46.512;6.626;2023-12-29T11:03:21;97321.75;;;12.66;65.51
60228;BME280;46091;46.512;6.626;2023-12-29T11:05:25;97325.41;;;12.65;65.50
60228;BME280;46091;46.512;6.626;2023-12-29T11:07:32;97314.63;;;12.67;65.42
60228;BME280;46091;46.512;6.626;2023-12-29T11:09:36;97303.81;;;12.68;65.74
60228;BME280;46091;46.512;6.626;2023-12-29T11:11:39;97302.00;;;12.69;65.62
60228;BME280;46091;46.512;6.626;2023-12-29T11:13:42;97299.78;;;12.72;65.69
60228;BME280;46091;46.512;6.626;2023-12-29T11:15:45;97300.59;;;12.73;65.56
60228;BME280;46091;46.512;6.626;2023-12-29T11:17:50;97298.75;;;12.73;65.37
60228;BME280;46091;46.512;6.626;2023-12-29T11:19:54;97287.94;;;12.75;65.25
60228;BME280;46091;46.512;6.626;2023-12-29T11:21:57;97288.75;;;12.75;65.43
60228;BME280;46091;46.512;6.626;2023-12-29T11:24:00;97285.09;;;12.76;65.21
60228;BME280;46091;46.512;6.626;2023-12-29T11:26:05;97280.81;;;12.75;65.19
60228;BME280;46091;46.512;6.626;2023-12-29T11:28:11;97270.81;;;12.77;65.27
60228;BME280;46091;46.512;6.626;2023-12-29T11:30:15;97281.44;;;12.77;65.02
60228;BME280;46091;46.512;6.626;2023-12-29T11:32:25;97276.94;;;12.78;64.96
60228;BME280;46091;46.512;6.626;2023-12-29T11:34:34;97270.81;;;12.77;65.15
60228;BME280;46091;46.512;6.626;2023-12-29T11:36:41;97275.31;;;12.77;65.17
60228;BME280;46091;46.512;6.626;2023-12-29T11:38:53;97263.47;;;12.79;64.74
60228;BME280;46091;46.512;6.626;2023-12-29T11:41:08;97258.16;;;12.79;65.11
60228;BME280;46091;46.512;6.626;2023-12-29T11:43:16;97249.22;;;12.80;64.84
60228;BME280;46091;46.512;6.626;2023-12-29T11:45:28;97245.53;;;12.81;64.91
60228;BME280;46091;46.512;6.626;2023-12-29T11:47:36;97242.69;;;12.83;64.88
60228;BME280;46091;46.512;6.626;2023-12-29T11:49:58;97248.00;;;12.83;64.68
60228;BME280;46091;46.512;6.626;2023-12-29T11:52:01;97242.50;;;12.85;64.31
60228;BME280;46091;46.512;6.626;2023-12-29T11:54:05;97237.38;;;12.83;64.70
60228;BME280;46091;46.512;6.626;2023-12-29T11:56:16;97237.38;;;12.83;64.67
60228;BME280;46091;46.512;6.626;2023-12-29T11:58:26;97243.50;;;12.83;64.49
60228;BME280;46091;46.512;6.626;2023-12-29T12:00:41;97247.59;;;12.86;64.41
60228;BME280;46091;46.512;6.626;2023-12-29T12:02:46;97247.81;;;12.85;64.23
60228;BME280;46091;46.512;6.626;2023-12-29T12:04:51;97229.22;;;12.85;63.94
60228;BME280;46091;46.512;6.626;2023-12-29T12:06:54;97240.84;;;12.83;64.00
60228;BME280;46091;46.512;6.626;2023-12-29T12:09:15;97230.25;;;12.83;63.86
60228;BME280;46091;46.512;6.626;2023-12-29T12:11:44;97230.03;;;12.85;64.02
60228;BME280;46091;46.512;6.626;2023-12-29T12:13:47;97226.56;;;12.85;63.79
60228;BME280;46091;46.512;6.626;2023-12-29T12:15:51;97228.22;;;12.86;63.94
60228;BME280;46091;46.512;6.626;2023-12-29T12:17:53;97216.78;;;12.85;63.54
60228;BME280;46091;46.512;6.626;2023-12-29T12:19:58;97217.59;;;12.86;63.88
60228;BME280;46091;46.512;6.626;2023-12-29T12:22:01;97211.28;;;12.87;63.77
60228;BME280;46091;46.512;6.626;2023-12-29T12:24:05;97216.19;;;12.90;63.59
60228;BME280;46091;46.512;6.626;2023-12-29T12:26:08;97207.84;;;12.93;63.41
60228;BME280;46091;46.512;6.626;2023-12-29T12:28:14;97200.28;;;12.96;63.35
60228;BME280;46091;46.512;6.626;2023-12-29T12:30:18;97197.03;;;13.01;63.19
60228;BME280;46091;46.512;6.626;2023-12-29T12:32:22;97196.00;;;13.02;63.08
60228;BME280;46091;46.512;6.626;2023-12-29T12:34:24;97196.66;;;13.04;63.11
60228;BME280;46091;46.512;6.626;2023-12-29T12:36:28;97196.66;;;13.04;63.36
60228;BME280;46091;46.512;6.626;2023-12-29T12:38:30;97190.94;;;13.07;63.38
60228;BME280;46091;46.512;6.626;2023-12-29T12:40:35;97183.59;;;13.09;63.10
60228;BME280;46091;46.512;6.626;2023-12-29T12:42:39;97186.88;;;13.11;63.30
60228;BME280;46091;46.512;6.626;2023-12-29T12:44:48;97187.47;;;13.13;63.26
60228;BME280;46091;46.512;6.626;2023-12-29T12:46:57;97186.50;;;13.14;62.98
60228;BME280;46091;46.512;6.626;2023-12-29T12:49:03;97189.16;;;13.14;63.05
60228;BME280;46091;46.512;6.626;2023-12-29T12:51:07;97182.00;;;13.15;63.03
60228;BME280;46091;46.512;6.626;2023-12-29T12:53:11;97185.47;;;13.15;62.89
60228;BME280;46091;46.512;6.626;2023-12-29T12:55:21;97186.28;;;13.16;62.74
60228;BME280;46091;46.512;6.626;2023-12-29T12:57:24;97180.78;;;13.17;62.70
60228;BME280;46091;46.512;6.626;2023-12-29T12:59:28;97170.97;;;13.18;62.55
60228;BME280;46091;46.512;6.626;2023-12-29T13:01:36;97158.34;;;13.20;62.83
60228;BME280;46091;46.512;6.626;2023-12-29T13:03:40;97155.47;;;13.21;62.72
60228;BME280;46091;46.512;6.626;2023-12-29T13:05:43;97156.72;;;13.19;62.54
60228;BME280;46091;46.512;6.626;2023-12-29T13:07:46;97163.81;;;13.18;62.25
60228;BME280;46091;46.512;6.626;2023-12-29T13:09:50;97157.91;;;13.16;62.33
60228;BME280;46091;46.512;6.626;2023-12-29T13:12:07;97161.38;;;13.17;62.40
60228;BME280;46091;46.512;6.626;2023-12-29T13:14:19;97155.84;;;13.18;62.26
60228;BME280;46091;46.512;6.626;2023-12-29T13:16:29;97147.72;;;13.20;62.17
60228;BME280;46091;46.512;6.626;2023-12-29T13:18:35;97145.25;;;13.18;62.47
60228;BME280;46091;46.512;6.626;2023-12-29T13:20:43;97144.25;;;13.19;62.23
60228;BME280;46091;46.512;6.626;2023-12-29T13:22:47;97145.06;;;13.20;62.18
60228;BME280;46091;46.512;6.626;2023-12-29T13:24:52;97137.91;;;13.20;62.07
60228;BME280;46091;46.512;6.626;2023-12-29T13:26:58;97137.09;;;13.20;62.27
60228;BME280;46091;46.512;6.626;2023-12-29T13:29:05;97139.34;;;13.23;62.08
60228;BME280;46091;46.512;6.626;2023-12-29T13:31:11;97143.47;;;13.25;62.12
60228;BME280;46091;46.512;6.626;2023-12-29T13:33:24;97139.13;;;13.24;62.21
60228;BME280;46091;46.512;6.626;2023-12-29T13:35:34;97134.66;;;13.25;61.96
60228;BME280;46091;46.512;6.626;2023-12-29T13:37:46;97134.28;;;13.28;62.08
60228;BME280;46091;46.512;6.626;2023-12-29T13:39:54;97145.50;;;13.30;61.98
60228;BME280;46091;46.512;6.626;2023-12-29T13:42:00;97138.34;;;13.30;61.96
60228;BME280;46091;46.512;6.626;2023-12-29T13:44:06;97135.50;;;13.32;62.01
60228;BME280;46091;46.512;6.626;2023-12-29T13:46:09;97138.34;;;13.30;61.91
60228;BME280;46091;46.512;6.626;2023-12-29T13:48:13;97144.47;;;13.31;61.87
60228;BME280;46091;46.512;6.626;2023-12-29T13:50:17;97145.28;;;13.31;62.05
60228;BME280;46091;46.512;6.626;2023-12-29T13:52:20;97141.81;;;13.31;61.81
60228;BME280;46091;46.512;6.626;2023-12-29T13:54:23;97142.03;;;13.29;62.26
60228;BME280;46091;46.512;6.626;2023-12-29T13:56:27;97137.75;;;13.28;61.98
60228;BME280;46091;46.512;6.626;2023-12-29T13:58:30;97141.41;;;13.27;62.04
60228;BME280;46091;46.512;6.626;2023-12-29T14:00:34;97137.94;;;13.27;62.29
60228;BME280;46091;46.512;6.626;2023-12-29T14:02:39;97147.75;;;13.26;62.20
60228;BME280;46091;46.512;6.626;2023-12-29T14:04:43;97144.44;;;13.24;62.50
60228;BME280;46091;46.512;6.626;2023-12-29T14:06:51;97141.78;;;13.24;62.59
60228;BME280;46091;46.512;6.626;2023-12-29T14:08:58;97130.56;;;13.22;62.60
60228;BME280;46091;46.512;6.626;2023-12-29T14:11:06;97126.47;;;13.20;62.58
60228;BME280;46091;46.512;6.626;2023-12-29T14:13:10;97130.16;;;13.19;62.51
60228;BME280;46091;46.512;6.626;2023-12-29T14:15:14;97123.41;;;13.16;62.86
60228;BME280;46091;46.512;6.626;2023-12-29T14:17:20;97138.72;;;13.14;62.86
60228;BME280;46091;46.512;6.626;2023-12-29T14:19:23;97135.41;;;13.12;62.65
60228;BME280;46091;46.512;6.626;2023-12-29T14:21:27;97141.75;;;13.11;63.21
60228;BME280;46091;46.512;6.626;2023-12-29T14:23:31;97132.16;;;13.10;62.77
60228;BME280;46091;46.512;6.626;2023-12-29T14:25:35;97140.91;;;13.10;62.82
60228;BME280;46091;46.512;6.626;2023-12-29T14:27:38;97133.78;;;13.11;63.10
60228;BME280;46091;46.512;6.626;2023-12-29T14:29:41;97136.63;;;13.09;63.08
60228;BME280;46091;46.512;6.626;2023-12-29T14:31:46;97137.25;;;13.05;62.97
60228;BME280;46091;46.512;6.626;2023-12-29T14:33:49;97136.22;;;13.06;63.06
60228;BME280;46091;46.512;6.626;2023-12-29T14:35:52;97137.66;;;13.08;63.02
60228;BME280;46091;46.512;6.626;2023-12-29T14:37:55;97137.44;;;13.10;63.32
60228;BME280;46091;46.512;6.626;2023-12-29T14:39:58;97137.03;;;13.13;63.25
60228;BME280;46091;46.512;6.626;2023-12-29T14:42:03;97137.03;;;13.13;63.15
60228;BME280;46091;46.512;6.626;2023-12-29T14:44:06;97150.16;;;13.15;63.09
60228;BME280;46091;46.512;6.626;2023-12-29T14:46:10;97141.38;;;13.14;63.43
60228;BME280;46091;46.512;6.626;2023-12-29T14:48:12;97156.06;;;13.17;63.19
60228;BME280;46091;46.512;6.626;2023-12-29T14:50:15;97158.72;;;13.17;63.33
60228;BME280;46091;46.512;6.626;2023-12-29T14:52:18;97150.56;;;13.18;63.46
60228;BME280;46091;46.512;6.626;2023-12-29T14:54:21;97153.41;;;13.17;63.38
60228;BME280;46091;46.512;6.626;2023-12-29T14:56:24;97155.44;;;13.15;63.59
60228;BME280;46091;46.512;6.626;2023-12-29T14:58:30;97154.44;;;13.16;63.34
60228;BME280;46091;46.512;6.626;2023-12-29T15:00:33;97145.66;;;13.15;63.52
60228;BME280;46091;46.512;6.626;2023-12-29T15:02:36;97141.97;;;13.16;63.50
60228;BME280;46091;46.512;6.626;2023-12-29T15:04:39;97140.13;;;13.17;63.64
60228;BME280;46091;46.512;6.626;2023-12-29T15:06:42;97137.47;;;13.17;63.46
60228;BME280;46091;46.512;6.626;2023-12-29T15:08:44;97136.66;;;13.16;63.74
60228;BME280;46091;46.512;6.626;2023-12-29T15:10:47;97133.63;;;13.19;63.62
60228;BME280;46091;46.512;6.626;2023-12-29T15:12:49;97133.63;;;13.19;63.37
60228;BME280;46091;46.512;6.626;2023-12-29T15:14:54;97130.16;;;13.19;63.58
60228;BME280;46091;46.512;6.626;2023-12-29T15:16:56;97140.78;;;13.19;63.51
60228;BME280;46091;46.512;6.626;2023-12-29T15:18:59;97137.28;;;13.18;63.48
60228;BME280;46091;46.512;6.626;2023-12-29T15:21:05;97142.78;;;13.17;63.54
60228;BME280;46091;46.512;6.626;2023-12-29T15:23:09;97138.28;;;13.17;63.55
60228;BME280;46091;46.512;6.626;2023-12-29T15:25:11;97141.16;;;13.16;63.43
60228;BME280;46091;46.512;6.626;2023-12-29T15:27:14;97135.03;;;13.15;63.60
60228;BME280;46091;46.512;6.626;2023-12-29T15:29:17;97137.69;;;13.15;63.70
60228;BME280;46091;46.512;6.626;2023-12-29T15:31:20;97140.13;;;13.17;63.45
60228;BME280;46091;46.512;6.626;2023-12-29T15:33:23;97140.34;;;13.15;63.31
60228;BME280;46091;46.512;6.626;2023-12-29T15:35:28;97141.97;;;13.16;63.66
60228;BME280;46091;46.512;6.626;2023-12-29T15:37:31;97136.66;;;13.16;63.45
60228;BME280;46091;46.512;6.626;2023-12-29T15:39:34;97141.97;;;13.16;63.46
60228;BME280;46091;46.512;6.626;2023-12-29T15:41:39;97138.28;;;13.17;63.67
60228;BME280;46091;46.512;6.626;2023-12-29T15:43:42;97120.31;;;13.12;63.60
60228;BME280;46091;46.512;6.626;2023-12-29T15:45:45;97116.00;;;13.11;63.64
60228;BME280;46091;46.512;6.626;2023-12-29T15:47:50;97110.91;;;13.10;63.60
60228;BME280;46091;46.512;6.626;2023-12-29T15:49:52;97107.22;;;13.11;63.75
60228;BME280;46091;46.512;6.626;2023-12-29T15:51:56;97109.88;;;13.11;63.86
60228;BME280;46091;46.512;6.626;2023-12-29T15:53:59;97108.47;;;13.08;63.51
60228;BME280;46091;46.512;6.626;2023-12-29T15:56:02;97103.97;;;13.09;63.86
60228;BME280;46091;46.512;6.626;2023-12-29T15:58:06;97102.34;;;13.08;63.70
60228;BME280;46091;46.512;6.626;2023-12-29T16:00:11;97102.34;;;13.08;63.92
60228;BME280;46091;46.512;6.626;2023-12-29T16:02:15;97102.34;;;13.08;63.70
60228;BME280;46091;46.512;6.626;2023-12-29T16:04:19;97101.53;;;13.07;63.62
60228;BME280;46091;46.512;6.626;2023-12-29T16:06:23;97107.66;;;13.08;63.69
60228;BME280;46091;46.512;6.626;2023-12-29T16:08:26;97106.00;;;13.07;63.59
60228;BME280;46091;46.512;6.626;2023-12-29T16:10:33;97112.94;;;13.08;63.67
60228;BME280;46091;46.512;6.626;2023-12-29T16:12:37;97107.66;;;13.08;63.97
60228;BME280;46091;46.512;6.626;2023-12-29T16:14:40;97101.53;;;13.07;63.85
60228;BME280;46091;46.512;6.626;2023-12-29T16:16:43;97103.34;;;13.07;63.85
60228;BME280;46091;46.512;6.626;2023-12-29T16:18:46;97111.31;;;13.07;63.83
60228;BME280;46091;46.512;6.626;2023-12-29T16:20:51;97111.31;;;13.07;63.75
60228;BME280;46091;46.512;6.626;2023-12-29T16:22:53;97110.72;;;13.05;63.52
60228;BME280;46091;46.512;6.626;2023-12-29T16:24:57;97120.31;;;13.06;63.78
60228;BME280;46091;46.512;6.626;2023-12-29T16:27:00;97121.94;;;13.07;63.72
60228;BME280;46091;46.512;6.626;2023-12-29T16:29:02;97129.91;;;13.07;63.69
60228;BME280;46091;46.512;6.626;2023-12-29T16:31:07;97121.94;;;13.07;63.69
60228;BME280;46091;46.512;6.626;2023-12-29T16:33:11;97122.53;;;13.09;63.69
60228;BME280;46091;46.512;6.626;2023-12-29T16:35:14;97125.19;;;13.09;63.73
60228;BME280;46091;46.512;6.626;2023-12-29T16:37:19;97120.91;;;13.08;63.40
60228;BME280;46091;46.512;6.626;2023-12-29T16:39:22;97119.06;;;13.08;63.39
60228;BME280;46091;46.512;6.626;2023-12-29T16:41:25;97101.53;;;13.07;63.47
60228;BME280;46091;46.512;6.626;2023-12-29T16:43:28;97101.31;;;13.09;63.65
60228;BME280;46091;46.512;6.626;2023-12-29T16:45:31;97099.47;;;13.09;63.44
60228;BME280;46091;46.512;6.626;2023-12-29T16:47:34;97106.63;;;13.09;63.46
60228;BME280;46091;46.512;6.626;2023-12-29T16:49:38;97100.28;;;13.10;63.81
60228;BME280;46091;46.512;6.626;2023-12-29T16:51:41;97110.91;;;13.10;63.66
60228;BME280;46091;46.512;6.626;2023-12-29T16:53:47;97108.47;;;13.08;63.58
60228;BME280;46091;46.512;6.626;2023-12-29T16:55:59;97112.34;;;13.06;63.75
60228;BME280;46091;46.512;6.626;2023-12-29T16:58:02;97107.03;;;13.06;63.72
60228;BME280;46091;46.512;6.626;2023-12-29T17:00:07;97104.78;;;13.03;63.99
60228;BME280;46091;46.512;6.626;2023-12-29T17:02:11;97102.31;;;13.01;64.03
60228;BME280;46091;46.512;6.626;2023-12-29T17:04:14;97096.59;;;12.98;63.78
60228;BME280;46091;46.512;6.626;2023-12-29T17:06:17;97097.63;;;12.97;63.97
60228;BME280;46091;46.512;6.626;2023-12-29T17:08:20;97102.09;;;12.96;64.11
60228;BME280;46091;46.512;6.626;2023-12-29T17:10:24;97100.47;;;12.95;63.90
60228;BME280;46091;46.512;6.626;2023-12-29T17:12:27;97101.28;;;12.96;64.00
60228;BME280;46091;46.512;6.626;2023-12-29T17:14:30;97097.81;;;12.95;64.07
60228;BME280;46091;46.512;6.626;2023-12-29T17:16:33;97105.78;;;12.95;64.09
60228;BME280;46091;46.512;6.626;2023-12-29T17:18:36;97097.81;;;12.95;64.14
60228;BME280;46091;46.512;6.626;2023-12-29T17:20:39;97105.97;;;12.94;63.75
60228;BME280;46091;46.512;6.626;2023-12-29T17:22:42;97110.69;;;12.92;63.80
60228;BME280;46091;46.512;6.626;2023-12-29T17:24:45;97112.50;;;12.91;63.88
60228;BME280;46091;46.512;6.626;2023-12-29T17:26:50;97106.38;;;12.91;64.00
60228;BME280;46091;46.512;6.626;2023-12-29T17:28:52;97110.84;;;12.90;64.04
60228;BME280;46091;46.512;6.626;2023-12-29T17:30:56;97107.38;;;12.90;63.89
60228;BME280;46091;46.512;6.626;2023-12-29T17:32:59;97107.59;;;12.88;63.84
60228;BME280;46091;46.512;6.626;2023-12-29T17:35:03;97112.47;;;12.85;63.78
60228;BME280;46091;46.512;6.626;2023-12-29T17:37:06;97121.06;;;12.87;63.73
60228;BME280;46091;46.512;6.626;2023-12-29T17:39:10;97125.97;;;12.90;64.10
60228;BME280;46091;46.512;6.626;2023-12-29T17:41:13;97116.97;;;12.91;63.81
60228;BME280;46091;46.512;6.626;2023-12-29T17:43:17;97113.50;;;12.90;64.07
60228;BME280;46091;46.512;6.626;2023-12-29T17:45:20;97104.72;;;12.90;63.99
60228;BME280;46091;46.512;6.626;2023-12-29T17:47:22;97112.69;;;12.90;63.70
60228;BME280;46091;46.512;6.626;2023-12-29T17:49:25;97103.31;;;12.87;63.77
60228;BME280;46091;46.512;6.626;2023-12-29T17:51:30;97103.50;;;12.86;63.76
60228;BME280;46091;46.512;6.626;2023-12-29T17:53:33;97108.81;;;12.86;63.74
60228;BME280;46091;46.512;6.626;2023-12-29T17:55:36;97115.75;;;12.87;63.77
60228;BME280;46091;46.512;6.626;2023-12-29T17:57:39;97120.03;;;12.88;63.70
60228;BME280;46091;46.512;6.626;2023-12-29T17:59:44;97121.06;;;12.87;63.88
60228;BME280;46091;46.512;6.626;2023-12-29T18:01:49;97120.25;;;12.86;63.82
60228;BME280;46091;46.512;6.626;2023-12-29T18:03:53;97115.13;;;12.85;63.95
60228;BME280;46091;46.512;6.626;2023-12-29T18:05:55;97119.63;;;12.84;64.02
60228;BME280;46091;46.512;6.626;2023-12-29T18:07:58;97116.97;;;12.84;63.83
60228;BME280;46091;46.512;6.626;2023-12-29T18:10:01;97126.56;;;12.85;64.12
60228;BME280;46091;46.512;6.626;2023-12-29T18:12:06;97128.41;;;12.85;64.07
60228;BME280;46091;46.512;6.626;2023-12-29T18:14:09;97135.75;;;12.82;64.05
60228;BME280;46091;46.512;6.626;2023-12-29T18:16:13;97139.00;;;12.85;64.09
60228;BME280;46091;46.512;6.626;2023-12-29T18:18:17;97141.66;;;12.85;63.78
60228;BME280;46091;46.512;6.626;2023-12-29T18:20:21;97146.78;;;12.86;63.99
60228;BME280;46091;46.512;6.626;2023-12-29T18:22:25;97154.72;;;12.86;63.95
60228;BME280;46091;46.512;6.626;2023-12-29T18:24:29;97158.19;;;12.87;63.99
60228;BME280;46091;46.512;6.626;2023-12-29T18:26:32;97140.66;;;12.86;63.84
60228;BME280;46091;46.512;6.626;2023-12-29T18:28:35;97137.19;;;12.85;63.91
60228;BME280;46091;46.512;6.626;2023-12-29T18:30:40;97149.63;;;12.85;63.76
60228;BME280;46091;46.512;6.626;2023-12-29T18:32:44;97143.50;;;12.84;63.98
60228;BME280;46091;46.512;6.626;2023-12-29T18:34:47;97152.28;;;12.85;63.88
60228;BME280;46091;46.512;6.626;2023-12-29T18:36:50;97152.06;;;12.86;63.73
60228;BME280;46091;46.512;6.626;2023-12-29T18:38:53;97146.78;;;12.86;63.87
60228;BME280;46091;46.512;6.626;2023-12-29T18:40:56;97144.94;;;12.87;63.84
60228;BME280;46091;46.512;6.626;2023-12-29T18:42:59;97148.41;;;12.87;63.90
60228;BME280;46091;46.512;6.626;2023-12-29T18:45:01;97145.75;;;12.87;63.72
60228;BME280;46091;46.512;6.626;2023-12-29T18:47:05;97149.03;;;12.89;63.67
60228;BME280;46091;46.512;6.626;2023-12-29T18:49:12;97145.56;;;12.89;63.77